createdAt,value
2024-04-30T00:01:34.044Z,1.73
2024-04-30T00:04:00.924Z,2.23
2024-04-30T00:06:32.863Z,1.73
2024-04-30T00:08:59.490Z,1.60
2024-04-30T00:11:28.753Z,2.10
2024-04-30T00:13:55.448Z,2.00
2024-04-30T00:16:24.749Z,1.80
2024-04-30T00:18:51.392Z,2.30
2024-04-30T00:21:20.622Z,1.97
2024-04-30T00:23:49.866Z,1.97
2024-04-30T00:26:19.099Z,1.63
2024-04-30T00:28:46.947Z,1.93
2024-04-30T00:31:16.201Z,1.90
2024-04-30T00:33:42.837Z,1.70
2024-04-30T00:36:12.102Z,1.73
2024-04-30T00:38:38.728Z,1.93
2024-04-30T00:41:10.504Z,2.03
2024-04-30T00:43:37.355Z,2.00
2024-04-30T00:46:07.169Z,1.73
2024-04-30T00:48:36.441Z,1.40
2024-04-30T00:51:09.361Z,2.10
2024-04-30T00:53:36.105Z,1.80
2024-04-30T00:56:05.609Z,1.67
2024-04-30T00:58:36.157Z,1.77
2024-04-30T01:01:06.625Z,2.00
2024-04-30T01:03:33.638Z,2.00
2024-04-30T01:06:03.014Z,1.90
2024-04-30T01:08:29.678Z,1.83
2024-04-30T01:11:00.191Z,2.00
2024-04-30T01:13:28.802Z,1.60
2024-04-30T01:16:00.700Z,2.00
2024-04-30T01:18:27.381Z,1.70
2024-04-30T01:20:56.638Z,1.70
2024-04-30T01:23:25.897Z,1.60
2024-04-30T01:25:55.246Z,1.50
2024-04-30T01:28:21.965Z,1.90
2024-04-30T01:30:51.396Z,1.80
2024-04-30T01:33:18.616Z,2.10
2024-04-30T01:35:47.812Z,2.00
2024-04-30T01:38:14.621Z,1.80
2024-04-30T01:40:46.437Z,1.80
2024-04-30T01:43:13.114Z,2.10
2024-04-30T01:45:42.368Z,2.00
2024-04-30T01:48:09.077Z,2.30
2024-04-30T01:50:39.181Z,1.73
2024-04-30T01:53:05.831Z,1.97
2024-04-30T01:55:35.093Z,1.60
2024-04-30T01:58:04.738Z,2.20
2024-04-30T02:00:34.085Z,1.90
2024-04-30T02:03:00.734Z,1.60
2024-04-30T02:05:30.045Z,1.90
2024-04-30T02:07:56.768Z,1.80
2024-04-30T02:10:26.061Z,2.30
2024-04-30T02:12:52.700Z,2.07
2024-04-30T02:15:24.511Z,1.93
2024-04-30T02:17:51.585Z,1.70
2024-04-30T02:20:20.803Z,1.90
2024-04-30T02:22:47.456Z,2.00
2024-04-30T02:25:16.768Z,2.10
2024-04-30T02:27:43.487Z,1.83
2024-04-30T02:30:33.471Z,2.00
2024-04-30T02:33:21.212Z,2.97
2024-04-30T02:35:50.500Z,1.97
2024-04-30T02:38:19.705Z,2.10
2024-04-30T02:40:48.928Z,2.30
2024-04-30T02:43:18.201Z,2.10
2024-04-30T02:45:44.857Z,2.40
2024-04-30T02:48:17.559Z,2.10
2024-04-30T02:50:44.219Z,1.90
2024-04-30T02:53:13.475Z,2.10
2024-04-30T02:55:40.160Z,2.10
2024-04-30T02:58:09.382Z,2.13
2024-04-30T03:00:38.608Z,2.60
2024-04-30T03:03:05.506Z,2.33
2024-04-30T03:05:37.341Z,2.20
2024-04-30T03:08:05.374Z,1.93
2024-04-30T03:10:35.028Z,2.03
2024-04-30T03:13:01.847Z,2.27
2024-04-30T03:15:31.086Z,2.03
2024-04-30T03:17:57.919Z,2.50
2024-04-30T03:20:27.530Z,2.50
2024-04-30T03:22:56.764Z,2.43
2024-04-30T03:25:26.007Z,2.20
2024-04-30T03:27:52.719Z,2.43
2024-04-30T03:30:22.144Z,2.53
2024-04-30T03:32:49.065Z,2.43
2024-04-30T03:35:18.946Z,2.40
2024-04-30T03:37:48.203Z,2.77
2024-04-30T03:40:20.041Z,2.50
2024-04-30T03:42:52.284Z,2.40
2024-04-30T03:45:22.982Z,2.77
2024-04-30T03:47:52.235Z,2.37
2024-04-30T03:50:21.473Z,2.83
2024-04-30T03:52:48.098Z,2.57
2024-04-30T03:55:19.962Z,2.60
2024-04-30T03:57:46.582Z,2.63
2024-04-30T04:00:16.402Z,2.50
2024-04-30T04:02:43.163Z,2.57
2024-04-30T04:05:12.427Z,2.70
2024-04-30T04:07:39.096Z,2.80
2024-04-30T04:10:09.160Z,2.53
2024-04-30T04:12:57.039Z,3.33
2024-04-30T04:15:26.232Z,3.20
2024-04-30T04:17:55.521Z,2.80
2024-04-30T04:20:24.759Z,3.27
2024-04-30T04:22:53.983Z,3.00
2024-04-30T04:25:23.190Z,2.97
2024-04-30T04:27:52.464Z,3.00
2024-04-30T04:30:21.638Z,2.90
2024-04-30T04:32:48.391Z,2.80
2024-04-30T04:35:17.927Z,3.17
2024-04-30T04:37:45.834Z,2.80
2024-04-30T04:40:15.207Z,2.90
2024-04-30T04:42:41.855Z,3.20
2024-04-30T04:45:13.657Z,2.53
2024-04-30T04:47:40.386Z,2.50
2024-04-30T04:50:10.740Z,3.30
2024-04-30T04:52:38.585Z,2.97
2024-04-30T04:55:08.336Z,3.20
2024-04-30T04:57:35.016Z,3.10
2024-04-30T05:00:05.551Z,2.90
2024-04-30T05:02:34.802Z,3.50
2024-04-30T05:05:04.108Z,4.43
2024-04-30T05:07:31.055Z,3.20
2024-04-30T05:10:00.425Z,3.50
2024-04-30T05:12:27.076Z,3.30
2024-04-30T05:14:56.394Z,3.60
2024-04-30T05:17:23.174Z,3.10
2024-04-30T05:19:55.049Z,3.70
2024-04-30T05:22:21.776Z,3.50
2024-04-30T05:24:51.094Z,3.30
2024-04-30T05:27:17.784Z,3.97
2024-04-30T05:29:47.085Z,3.77
2024-04-30T05:32:13.748Z,3.53
2024-04-30T05:34:42.993Z,3.87
2024-04-30T05:37:12.362Z,3.90
2024-04-30T05:39:41.595Z,3.90
2024-04-30T05:42:09.170Z,4.33
2024-04-30T05:44:38.392Z,4.03
2024-04-30T05:47:05.156Z,4.30
2024-04-30T05:49:34.717Z,4.33
2024-04-30T05:52:01.656Z,4.10
2024-04-30T05:54:33.441Z,4.17
2024-04-30T05:57:00.132Z,4.47
2024-04-30T05:59:29.796Z,4.70
2024-04-30T06:01:56.520Z,4.40
2024-04-30T06:04:25.934Z,4.70
2024-04-30T06:06:52.621Z,4.43
2024-04-30T06:09:21.842Z,5.20
2024-04-30T06:11:52.859Z,4.97
2024-04-30T06:14:23.962Z,4.73
2024-04-30T06:16:51.855Z,5.03
2024-04-30T06:19:21.105Z,4.33
2024-04-30T06:21:47.965Z,4.80
2024-04-30T06:24:17.230Z,4.53
2024-04-30T06:26:44.287Z,4.87
2024-04-30T06:29:17.102Z,4.70
2024-04-30T06:31:43.844Z,5.10
2024-04-30T06:34:14.432Z,4.60
2024-04-30T06:36:41.105Z,5.00
2024-04-30T06:39:10.348Z,5.00
2024-04-30T06:41:37.005Z,4.20
2024-04-30T06:44:06.253Z,4.83
2024-04-30T06:46:35.591Z,4.90
2024-04-30T06:49:05.821Z,4.77
2024-04-30T06:51:34.582Z,4.83
2024-04-30T06:54:03.822Z,4.78
2024-04-30T06:56:30.465Z,4.87
2024-04-30T06:58:59.648Z,4.53
2024-04-30T07:01:28.967Z,5.00
2024-04-30T07:03:58.225Z,4.93
2024-04-30T07:06:27.457Z,4.67
2024-04-30T07:08:54.080Z,4.77
2024-04-30T07:11:23.536Z,4.70
2024-04-30T07:13:50.212Z,4.60
2024-04-30T07:16:19.551Z,4.70
2024-04-30T07:18:46.789Z,4.57
2024-04-30T07:21:18.690Z,5.10
2024-04-30T07:23:45.358Z,4.88
2024-04-30T07:26:16.693Z,4.43
2024-04-30T07:28:44.954Z,4.10
2024-04-30T07:31:14.176Z,4.88
2024-04-30T07:33:42.777Z,4.55
2024-04-30T07:36:12.134Z,4.97
2024-04-30T07:38:41.367Z,5.35
2024-04-30T07:41:10.850Z,5.72
2024-04-30T07:43:37.751Z,5.70
2024-04-30T07:46:07.539Z,5.20
2024-04-30T07:48:34.316Z,4.40
2024-04-30T07:51:03.666Z,4.25
2024-04-30T07:53:30.325Z,4.72
2024-04-30T07:56:02.136Z,3.90
2024-04-30T07:58:28.894Z,4.20
2024-04-30T08:00:58.136Z,3.85
2024-04-30T08:03:24.800Z,3.60
2024-04-30T08:05:56.329Z,3.70
2024-04-30T08:08:24.981Z,4.00
2024-04-30T08:10:54.882Z,4.38
2024-04-30T08:13:24.147Z,3.55
2024-04-30T08:15:53.376Z,3.28
2024-04-30T08:18:20.060Z,3.60
2024-04-30T08:20:49.297Z,3.85
2024-04-30T08:23:15.953Z,3.33
2024-04-30T08:25:45.218Z,3.38
2024-04-30T08:28:11.956Z,3.22
2024-04-30T08:30:44.387Z,3.40
2024-04-30T08:33:11.598Z,3.97
2024-04-30T08:35:42.304Z,3.38
2024-04-30T08:38:09.207Z,3.55
2024-04-30T08:40:38.806Z,3.88
2024-04-30T08:43:05.671Z,3.20
2024-04-30T08:45:36.985Z,4.47
2024-04-30T08:48:07.846Z,3.65
2024-04-30T08:50:41.377Z,3.65
2024-04-30T08:53:09.971Z,3.72
2024-04-30T08:55:40.436Z,3.42
2024-04-30T08:58:07.231Z,3.55
2024-04-30T09:00:37.387Z,4.00
2024-04-30T09:03:07.463Z,3.80
2024-04-30T09:05:37.097Z,3.53
2024-04-30T09:08:04.841Z,3.67
2024-04-30T09:10:35.989Z,3.53
2024-04-30T09:13:05.342Z,3.50
2024-04-30T09:15:32.018Z,3.33
2024-04-30T09:18:11.266Z,3.33
2024-04-30T09:20:44.458Z,3.50
2024-04-30T09:23:13.661Z,3.42
2024-04-30T09:25:43.011Z,3.38
2024-04-30T09:28:13.446Z,4.03
2024-04-30T09:30:42.716Z,3.40
2024-04-30T09:33:12.443Z,3.97
2024-04-30T09:35:42.175Z,3.50
2024-04-30T09:38:11.602Z,3.88
2024-04-30T09:40:41.002Z,3.50
2024-04-30T09:43:08.122Z,3.60
2024-04-30T09:45:37.422Z,3.70
2024-04-30T09:48:09.499Z,4.00
2024-04-30T09:50:43.520Z,3.75
2024-04-30T09:53:11.929Z,3.88
2024-04-30T09:55:41.167Z,3.60
2024-04-30T09:58:10.284Z,3.80
2024-04-30T10:00:39.493Z,4.78
2024-04-30T10:03:09.346Z,3.70
2024-04-30T10:05:45.870Z,3.30
2024-04-30T10:08:15.259Z,3.72
2024-04-30T10:10:45.845Z,3.35
2024-04-30T10:13:19.318Z,3.15
2024-04-30T10:15:46.049Z,3.95
2024-04-30T10:18:23.928Z,3.83
2024-04-30T10:20:53.451Z,4.07
2024-04-30T10:23:30.371Z,3.45
2024-04-30T10:26:04.400Z,3.45
2024-04-30T10:28:33.845Z,2.88
2024-04-30T10:31:10.941Z,2.67
2024-04-30T10:33:40.949Z,2.60
2024-04-30T10:36:12.260Z,2.85
2024-04-30T10:38:42.957Z,3.17
2024-04-30T10:41:10.592Z,2.92
2024-04-30T10:43:40.078Z,2.72
2024-04-30T10:46:12.495Z,3.17
2024-04-30T10:48:49.603Z,2.72
2024-04-30T10:51:20.872Z,3.85
2024-04-30T10:53:51.725Z,3.42
2024-04-30T10:56:18.938Z,2.80
2024-04-30T10:58:55.365Z,2.90
2024-04-30T11:01:23.272Z,3.60
2024-04-30T11:03:53.362Z,3.17
2024-04-30T11:06:25.204Z,3.60
2024-04-30T11:08:51.915Z,2.95
2024-04-30T11:11:43.137Z,3.67
2024-04-30T11:14:09.809Z,3.55
2024-04-30T11:16:39.711Z,3.22
2024-04-30T11:19:06.449Z,3.30
2024-04-30T11:21:38.337Z,3.20
2024-04-30T11:24:06.148Z,3.00
2024-04-30T11:26:35.364Z,3.10
2024-04-30T11:29:15.924Z,3.13
2024-04-30T11:31:51.415Z,6.00
2024-04-30T11:34:18.106Z,3.50
2024-04-30T11:36:50.036Z,3.05
2024-04-30T11:39:16.882Z,2.97
2024-04-30T11:41:51.923Z,2.83
2024-04-30T11:44:23.881Z,2.60
2024-04-30T11:46:53.113Z,3.00
2024-04-30T11:49:19.869Z,3.28
2024-04-30T11:51:51.697Z,2.88
2024-04-30T11:54:18.362Z,2.50
2024-04-30T11:56:47.616Z,2.60
2024-04-30T11:59:14.300Z,2.67
2024-04-30T12:01:43.740Z,2.40
2024-04-30T12:04:10.446Z,2.20
2024-04-30T12:06:40.128Z,2.72
2024-04-30T12:09:09.408Z,3.13
2024-04-30T12:11:41.065Z,2.60
2024-04-30T12:14:07.725Z,2.30
2024-04-30T12:16:37.000Z,2.50
2024-04-30T12:19:05.117Z,2.25
2024-04-30T12:21:34.410Z,2.42
2024-04-30T12:24:01.121Z,3.40
2024-04-30T12:26:37.565Z,2.30
2024-04-30T12:29:04.374Z,2.10
2024-04-30T12:31:34.278Z,2.00
2024-04-30T12:34:00.963Z,1.95
2024-04-30T12:36:32.578Z,1.83
2024-04-30T12:39:02.000Z,2.30
2024-04-30T12:41:37.150Z,2.10
2024-04-30T12:44:06.568Z,1.60
2024-04-30T12:46:33.407Z,2.08
2024-04-30T12:49:02.946Z,1.90
2024-04-30T12:51:29.706Z,2.10
2024-04-30T12:53:59.607Z,2.05
2024-04-30T12:56:26.323Z,2.13
2024-04-30T12:58:58.173Z,2.42
2024-04-30T13:01:26.333Z,1.77
2024-04-30T13:03:55.930Z,1.75
2024-04-30T13:06:22.629Z,1.90
2024-04-30T13:08:52.051Z,1.73
2024-04-30T13:11:18.761Z,1.80
2024-04-30T13:13:48.019Z,1.95
2024-04-30T13:16:17.287Z,2.00
2024-04-30T13:18:46.628Z,2.10
2024-04-30T13:21:14.848Z,2.28
2024-04-30T13:23:44.253Z,1.90
2024-04-30T13:26:11.050Z,1.98
2024-04-30T13:28:40.323Z,1.95
2024-04-30T13:31:07.165Z,2.05
2024-04-30T13:33:39.787Z,1.90
2024-04-30T13:36:09.966Z,2.13
2024-04-30T13:38:39.181Z,2.25
2024-04-30T13:41:05.864Z,2.25
2024-04-30T13:43:39.389Z,2.30
2024-04-30T13:46:06.286Z,1.85
2024-04-30T13:48:35.618Z,1.90
2024-04-30T13:51:05.457Z,1.98
2024-04-30T13:53:34.771Z,2.90
2024-04-30T13:56:01.408Z,2.30
2024-04-30T13:58:30.740Z,2.42
2024-04-30T14:00:57.483Z,2.00
2024-04-30T14:03:26.786Z,2.22
2024-04-30T14:05:55.151Z,2.00
2024-04-30T14:08:27.658Z,2.10
2024-04-30T14:10:54.508Z,3.00
2024-04-30T14:13:23.850Z,2.25
2024-04-30T14:15:50.572Z,2.00
2024-04-30T14:18:19.811Z,1.90
2024-04-30T14:20:46.724Z,1.90
2024-04-30T14:23:15.960Z,2.22
2024-04-30T14:25:45.291Z,2.20
2024-04-30T14:28:14.650Z,2.17
2024-04-30T14:30:41.529Z,2.17
2024-04-30T14:33:10.837Z,1.98
2024-04-30T14:35:52.507Z,2.30
2024-04-30T14:38:21.796Z,1.85
2024-04-30T14:40:51.404Z,2.20
2024-04-30T14:43:20.691Z,1.70
2024-04-30T14:45:47.335Z,1.75
2024-04-30T14:48:17.187Z,2.30
2024-04-30T14:50:43.969Z,2.33
2024-04-30T14:53:13.170Z,1.70
2024-04-30T14:55:40.131Z,2.00
2024-04-30T14:58:11.990Z,1.85
2024-04-30T15:00:38.661Z,1.90
2024-04-30T15:03:08.441Z,1.90
2024-04-30T15:05:35.173Z,1.80
2024-04-30T15:08:04.414Z,1.92
2024-04-30T15:10:31.462Z,2.25
2024-04-30T15:13:00.838Z,2.17
2024-04-30T15:15:30.076Z,2.00
2024-04-30T15:17:59.445Z,2.00
2024-04-30T15:20:26.153Z,1.92
2024-04-30T15:22:55.771Z,2.00
2024-04-30T15:25:25.115Z,2.40
2024-04-30T15:27:51.845Z,2.13
2024-04-30T15:30:21.173Z,1.98
2024-04-30T15:32:51.703Z,2.45
2024-04-30T15:35:22.361Z,2.38
2024-04-30T15:37:49.093Z,2.80
2024-04-30T15:40:18.506Z,2.05
2024-04-30T15:42:45.267Z,2.10
2024-04-30T15:45:14.637Z,2.33
2024-04-30T15:47:42.848Z,2.20
2024-04-30T15:50:14.744Z,2.40
2024-04-30T15:52:41.516Z,2.15
2024-04-30T15:55:10.834Z,2.50
2024-04-30T15:57:37.749Z,2.15
2024-04-30T16:00:07.898Z,2.45
2024-04-30T16:02:34.919Z,2.03
2024-04-30T16:05:04.326Z,2.30
2024-04-30T16:07:34.063Z,3.65
2024-04-30T16:10:03.267Z,2.38
2024-04-30T16:12:30.424Z,2.00
2024-04-30T16:14:59.633Z,1.73
2024-04-30T16:17:26.630Z,2.22
2024-04-30T16:19:56.046Z,1.98
2024-04-30T16:22:22.949Z,1.88
2024-04-30T16:24:55.665Z,2.13
2024-04-30T16:27:22.528Z,2.25
2024-04-30T16:29:51.721Z,2.20
2024-04-30T16:32:18.857Z,2.13
2024-04-30T16:34:48.189Z,2.00
2024-04-30T16:37:14.836Z,2.95
2024-04-30T16:39:44.060Z,2.20
2024-04-30T16:42:15.881Z,2.47
2024-04-30T16:44:48.611Z,2.10
2024-04-30T16:47:19.540Z,2.22
2024-04-30T16:49:48.821Z,2.40
2024-04-30T16:52:15.445Z,2.20
2024-04-30T16:54:44.706Z,2.45
2024-04-30T16:57:14.028Z,1.95
2024-04-30T16:59:43.249Z,2.00
2024-04-30T17:02:12.136Z,2.38
2024-04-30T17:04:41.844Z,2.65
2024-04-30T17:07:08.513Z,2.40
2024-04-30T17:09:37.749Z,2.30
2024-04-30T17:12:07.720Z,2.55
2024-04-30T17:14:37.218Z,2.22
2024-04-30T17:17:07.334Z,2.40
2024-04-30T17:19:34.099Z,2.38
2024-04-30T17:22:03.380Z,10.05
2024-04-30T17:24:30.050Z,3.88
2024-04-30T17:26:59.690Z,3.28
2024-04-30T17:29:26.327Z,2.67
2024-04-30T17:31:58.433Z,3.20
2024-04-30T17:34:25.127Z,4.47
2024-04-30T17:36:54.408Z,20.35
2024-04-30T17:39:21.248Z,3.53
2024-04-30T17:41:50.593Z,4.82
2024-04-30T17:44:17.302Z,3.60
2024-04-30T17:46:46.533Z,2.72
2024-04-30T17:49:15.871Z,3.25
2024-04-30T17:51:45.629Z,3.88
2024-04-30T17:54:14.634Z,2.97
2024-04-30T17:56:43.824Z,3.40
2024-04-30T17:59:10.860Z,3.38
2024-04-30T18:01:40.220Z,2.60
2024-04-30T18:04:06.970Z,3.13
2024-04-30T18:06:38.828Z,7.10
2024-04-30T18:09:06.773Z,3.17
2024-04-30T18:11:36.673Z,4.35
2024-04-30T18:14:03.638Z,4.05
2024-04-30T18:16:33.140Z,5.65
2024-04-30T18:18:59.934Z,9.52
2024-04-30T18:21:35.111Z,12.80
2024-04-30T18:24:07.140Z,8.25
2024-04-30T18:26:41.526Z,3.95
2024-04-30T18:29:08.761Z,4.95
2024-04-30T18:31:38.321Z,13.07
2024-04-30T18:34:05.097Z,4.85
2024-04-30T18:36:39.572Z,4.80
2024-04-30T18:39:13.763Z,4.22
2024-04-30T18:41:43.140Z,6.60
2024-04-30T18:44:10.059Z,18.08
2024-04-30T18:46:39.317Z,15.60
2024-04-30T18:49:06.100Z,12.35
2024-04-30T18:51:41.750Z,4.28
2024-04-30T18:54:13.911Z,4.40
2024-04-30T18:56:40.534Z,4.80
2024-04-30T18:59:09.838Z,3.85
2024-04-30T19:01:36.852Z,11.00
2024-04-30T19:04:06.623Z,23.33
2024-04-30T19:06:33.401Z,20.70
2024-04-30T19:09:02.768Z,15.25
2024-04-30T19:11:34.614Z,25.33
2024-04-30T19:14:01.308Z,6.13
2024-04-30T19:16:30.562Z,7.57
2024-04-30T19:18:58.052Z,6.65
2024-04-30T19:21:27.320Z,4.80
2024-04-30T19:23:53.962Z,7.93
2024-04-30T19:26:23.130Z,17.45
2024-04-30T19:28:52.444Z,22.77
2024-04-30T19:31:23.208Z,5.22
2024-04-30T19:33:50.135Z,17.50
2024-04-30T19:36:20.847Z,9.60
2024-04-30T19:38:48.313Z,7.90
2024-04-30T19:41:18.154Z,16.00
2024-04-30T19:43:45.070Z,14.25
2024-04-30T19:46:20.925Z,11.77
2024-04-30T19:48:48.043Z,20.30
2024-04-30T19:51:20.998Z,49.40
2024-04-30T19:53:49.580Z,62.60
2024-04-30T19:56:20.312Z,61.38
2024-04-30T19:58:51.664Z,24.58
2024-04-30T20:01:28.950Z,70.95
2024-04-30T20:03:57.685Z,57.03
2024-04-30T20:06:27.551Z,35.35
2024-04-30T20:08:54.332Z,32.08
2024-04-30T20:11:26.018Z,35.08
2024-04-30T20:13:53.571Z,7.88
2024-04-30T20:16:26.977Z,4.90
2024-04-30T20:18:54.092Z,8.13
2024-04-30T20:21:25.393Z,4.00
2024-04-30T20:23:52.273Z,8.27
2024-04-30T20:26:21.488Z,11.20
2024-04-30T20:28:48.513Z,10.40
2024-04-30T20:31:17.985Z,10.27
2024-04-30T20:33:47.297Z,7.35
2024-04-30T20:36:19.856Z,8.07
2024-04-30T20:38:46.794Z,25.17
2024-04-30T20:41:17.123Z,29.88
2024-04-30T20:43:43.905Z,20.85
2024-04-30T20:46:13.204Z,18.38
2024-04-30T20:48:39.991Z,9.52
2024-04-30T20:51:11.884Z,3.60
2024-04-30T20:53:40.245Z,5.10
2024-04-30T20:56:10.406Z,4.40
2024-04-30T20:58:37.036Z,11.77
2024-04-30T21:01:06.548Z,49.13
2024-04-30T21:03:33.334Z,9.20
2024-04-30T21:06:03.142Z,19.90
2024-04-30T21:08:32.419Z,17.50
2024-04-30T21:11:01.782Z,5.22
2024-04-30T21:13:28.465Z,6.45
2024-04-30T21:15:57.840Z,12.07
2024-04-30T21:18:24.727Z,34.15
2024-04-30T21:20:53.999Z,13.75
2024-04-30T21:23:21.540Z,5.18
2024-04-30T21:25:53.346Z,11.77
2024-04-30T21:28:20.008Z,22.20
2024-04-30T21:30:51.639Z,33.13
2024-04-30T21:33:18.850Z,29.75
2024-04-30T21:35:48.626Z,34.63
2024-04-30T21:38:16.598Z,10.05
2024-04-30T21:40:45.966Z,10.75
2024-04-30T21:43:15.231Z,7.25
2024-04-30T21:45:44.503Z,7.10
2024-04-30T21:48:11.384Z,9.02
2024-04-30T21:50:40.634Z,13.27
2024-04-30T21:53:07.412Z,39.88
2024-04-30T21:55:36.659Z,40.10
2024-04-30T21:58:03.538Z,31.83
2024-04-30T22:00:35.637Z,26.40
2024-04-30T22:03:03.551Z,27.15
2024-04-30T22:05:33.924Z,47.03
2024-04-30T22:08:00.693Z,8.27
2024-04-30T22:10:29.897Z,5.25
2024-04-30T22:12:56.780Z,7.60
2024-04-30T22:15:26.162Z,4.28
2024-04-30T22:17:55.494Z,15.35
2024-04-30T22:20:24.805Z,12.43
2024-04-30T22:22:51.494Z,50.00
2024-04-30T22:25:20.738Z,6.20
2024-04-30T22:27:47.419Z,4.90
2024-04-30T22:30:20.065Z,14.93
2024-04-30T22:32:47.378Z,39.95
2024-04-30T22:35:19.394Z,45.45
2024-04-30T22:37:46.027Z,6.38
2024-04-30T22:40:15.414Z,6.85
2024-04-30T22:42:42.227Z,11.40
2024-04-30T22:45:11.507Z,25.77
2024-04-30T22:47:38.334Z,15.88
2024-04-30T22:50:07.865Z,13.45
2024-04-30T22:52:37.103Z,10.70
2024-04-30T22:55:06.896Z,9.43
2024-04-30T22:57:36.235Z,12.68
2024-04-30T23:00:03.963Z,4.95
2024-04-30T23:02:33.224Z,10.05
2024-04-30T23:05:00.212Z,37.05
2024-04-30T23:07:29.503Z,40.00
2024-04-30T23:09:58.711Z,23.83
2024-04-30T23:12:28.097Z,8.00
2024-04-30T23:14:54.948Z,20.88
2024-04-30T23:17:24.245Z,7.78
2024-04-30T23:19:50.956Z,28.92
2024-04-30T23:22:23.402Z,37.75
2024-04-30T23:24:50.077Z,6.97
2024-04-30T23:27:22.222Z,10.40
2024-04-30T23:29:48.954Z,38.45
2024-04-30T23:32:18.351Z,13.82
2024-04-30T23:34:44.977Z,23.70
2024-04-30T23:37:14.202Z,15.02
2024-04-30T23:39:40.923Z,17.17
2024-04-30T23:42:13.761Z,22.45
2024-04-30T23:44:46.221Z,33.20
2024-04-30T23:47:15.448Z,44.33
2024-04-30T23:49:42.233Z,107.47
2024-04-30T23:52:11.491Z,21.45
2024-04-30T23:54:38.322Z,19.75
2024-04-30T23:57:08.210Z,17.52
2024-04-30T23:59:34.897Z,6.60
